createdAt,value
2019-04-21T00:00:18.943Z,1023.83
2019-04-21T00:01:16.671Z,1023.75
2019-04-21T00:02:25.376Z,1023.79
2019-04-21T00:03:25.827Z,1023.81
2019-04-21T00:04:30.067Z,1023.80
2019-04-21T00:05:30.701Z,1023.79
2019-04-21T00:06:36.877Z,1023.77
2019-04-21T00:07:36.222Z,1023.87
2019-04-21T00:08:38.948Z,1023.83
2019-04-21T00:09:44.263Z,1023.81
2019-04-21T00:10:41.896Z,1023.70
2019-04-21T00:11:57.284Z,1023.75
2019-04-21T00:12:35.870Z,1023.78
2019-04-21T00:13:32.603Z,1023.80
2019-04-21T00:14:30.345Z,1023.76
2019-04-21T00:15:28.700Z,1023.79
2019-04-21T00:16:25.587Z,1023.80
2019-04-21T00:17:19.651Z,1023.81
2019-04-21T00:18:17.438Z,1023.73
2019-04-21T00:19:20.849Z,1023.67
2019-04-21T00:20:26.952Z,1023.74
2019-04-21T00:21:26.613Z,1023.77
2019-04-21T00:22:31.534Z,1023.72
2019-04-21T00:23:34.306Z,1023.70
2019-04-21T00:24:28.828Z,1023.72
2019-04-21T00:25:32.283Z,1023.73
2019-04-21T00:27:36.814Z,1023.65
2019-04-21T00:28:42.584Z,1023.65
2019-04-21T00:29:38.628Z,1023.70
2019-04-21T00:30:39.884Z,1023.65
2019-04-21T00:31:33.900Z,1023.68
2019-04-21T00:32:27.923Z,1023.67
2019-04-21T00:33:23.239Z,1023.60
2019-04-21T00:34:17.648Z,1023.65
2019-04-21T00:35:21.074Z,1023.63
2019-04-21T00:36:24.249Z,1023.70
2019-04-21T00:37:28.155Z,1023.64
2019-04-21T00:38:42.675Z,1023.66
2019-04-21T00:39:43.630Z,1023.58
2019-04-21T00:40:42.100Z,1023.58
2019-04-21T00:41:38.044Z,1023.58
2019-04-21T00:42:37.642Z,1023.53
2019-04-21T00:43:36.386Z,1023.55
2019-04-21T00:44:27.059Z,1023.56
2019-04-21T00:45:31.316Z,1023.50
2019-04-21T00:46:31.293Z,1023.54
2019-04-21T00:47:52.641Z,1023.49
2019-04-21T00:48:41.312Z,1023.51
2019-04-21T00:49:31.984Z,1023.57
2019-04-21T00:50:40.796Z,1023.48
2019-04-21T00:51:49.881Z,1023.48
2019-04-21T00:53:47.806Z,1023.47
2019-04-21T00:54:44.417Z,1023.48
2019-04-21T00:56:46.706Z,1023.48
2019-04-21T00:57:45.564Z,1023.37
2019-04-21T00:58:41.068Z,1023.38
2019-04-21T00:59:39.991Z,1023.42
2019-04-21T01:00:38.497Z,1023.30
2019-04-21T01:01:39.385Z,1023.38
2019-04-21T01:02:44.460Z,1023.37
2019-04-21T01:03:43.263Z,1023.35
2019-04-21T01:04:42.859Z,1023.36
2019-04-21T01:05:42.597Z,1023.39
2019-04-21T01:06:42.766Z,1023.36
2019-04-21T01:07:39.293Z,1023.40
2019-04-21T01:08:36.960Z,1023.36
2019-04-21T01:09:32.744Z,1023.40
2019-04-21T01:10:28.635Z,1023.39
2019-04-21T01:11:38.907Z,1023.39
2019-04-21T01:12:37.939Z,1023.38
2019-04-21T01:13:41.660Z,1023.35
2019-04-21T01:14:41.888Z,1023.35
2019-04-21T01:15:46.877Z,1023.36
2019-04-21T01:16:39.311Z,1023.36
2019-04-21T01:17:44.654Z,1023.34
2019-04-21T01:18:41.000Z,1023.36
2019-04-21T01:19:33.441Z,1023.32
2019-04-21T01:20:17.948Z,1023.34
2019-04-21T01:21:15.479Z,1023.35
2019-04-21T01:22:15.479Z,1023.35
2019-04-21T01:23:16.634Z,1023.38
2019-04-21T01:24:21.659Z,1023.34
2019-04-21T01:25:25.847Z,1023.36
2019-04-21T01:26:30.767Z,1023.43
2019-04-21T01:27:39.757Z,1023.39
2019-04-21T01:28:35.932Z,1023.40
2019-04-21T01:29:44.064Z,1023.38
2019-04-21T01:30:34.549Z,1023.39
2019-04-21T01:31:32.901Z,1023.35
2019-04-21T01:32:35.713Z,1023.38
2019-04-21T01:33:39.808Z,1023.32
2019-04-21T01:34:39.133Z,1023.37
2019-04-21T01:35:40.201Z,1023.34
2019-04-21T01:36:34.650Z,1023.35
2019-04-21T01:37:44.049Z,1023.33
2019-04-21T01:38:40.133Z,1023.26
2019-04-21T01:39:42.048Z,1023.26
2019-04-21T01:40:43.131Z,1023.28
2019-04-21T01:41:42.826Z,1023.21
2019-04-21T01:42:32.323Z,1023.24
2019-04-21T01:43:38.356Z,1023.22
2019-04-21T01:44:56.282Z,1023.24
2019-04-21T01:45:35.500Z,1023.21
2019-04-21T01:46:34.963Z,1023.24
2019-04-21T01:47:31.430Z,1023.22
2019-04-21T01:48:34.215Z,1023.23
2019-04-21T01:49:28.289Z,1023.27
2019-04-21T01:50:36.449Z,1023.23
2019-04-21T01:51:38.428Z,1023.22
2019-04-21T01:52:47.350Z,1023.16
2019-04-21T01:53:38.544Z,1023.20
2019-04-21T01:54:41.755Z,1023.21
2019-04-21T01:55:35.663Z,1023.29
2019-04-21T01:56:34.271Z,1023.19
2019-04-21T01:57:34.688Z,1023.22
2019-04-21T01:58:28.885Z,1023.21
2019-04-21T01:59:30.630Z,1023.20
2019-04-21T02:00:32.830Z,1023.24
2019-04-21T02:01:33.294Z,1023.22
2019-04-21T02:02:35.975Z,1023.22
2019-04-21T02:04:41.735Z,1023.15
2019-04-21T02:05:39.339Z,1023.18
2019-04-21T02:06:34.837Z,1023.16
2019-04-21T02:07:40.720Z,1023.21
2019-04-21T02:08:31.321Z,1023.23
2019-04-21T02:09:38.399Z,1023.21
2019-04-21T02:10:39.976Z,1023.16
2019-04-21T02:11:37.301Z,1023.18
2019-04-21T02:12:43.326Z,1023.18
2019-04-21T02:13:36.877Z,1023.17
2019-04-21T02:14:41.472Z,1023.23
2019-04-21T02:15:56.089Z,1023.19
2019-04-21T02:16:34.544Z,1023.20
2019-04-21T02:17:38.804Z,1023.16
2019-04-21T02:18:37.394Z,1023.19
2019-04-21T02:19:31.218Z,1023.16
2019-04-21T02:20:26.846Z,1023.13
2019-04-21T02:21:31.784Z,1023.16
2019-04-21T02:22:46.095Z,1023.14
2019-04-21T02:23:46.500Z,1023.15
2019-04-21T02:24:42.054Z,1023.09
2019-04-21T02:25:38.429Z,1023.14
2019-04-21T02:26:49.047Z,1023.15
2019-04-21T02:27:36.598Z,1023.13
2019-04-21T02:28:42.443Z,1023.10
2019-04-21T02:29:40.892Z,1023.11
2019-04-21T02:30:55.261Z,1023.14
2019-04-21T02:31:49.090Z,1023.13
2019-04-21T02:32:55.673Z,1023.10
2019-04-21T02:34:00.224Z,1023.08
2019-04-21T02:36:15.089Z,1023.12
2019-04-21T02:36:54.820Z,1023.10
2019-04-21T02:37:53.568Z,1023.13
2019-04-21T02:39:08.183Z,1023.09
2019-04-21T02:39:51.340Z,1023.09
2019-04-21T02:40:47.564Z,1023.09
2019-04-21T02:41:51.583Z,1023.08
2019-04-21T02:45:00.485Z,1023.08
2019-04-21T02:45:46.770Z,1023.09
2019-04-21T02:48:55.887Z,1023.01
2019-04-21T02:49:56.985Z,1023.02
2019-04-21T02:50:45.170Z,1023.00
2019-04-21T02:51:54.474Z,1023.06
2019-04-21T02:54:28.700Z,1023.06
2019-04-21T02:55:43.712Z,1023.00
2019-04-21T02:58:51.211Z,1023.00
2019-04-21T02:59:55.966Z,1022.89
2019-04-21T03:00:42.787Z,1022.91
2019-04-21T03:01:54.463Z,1022.88
2019-04-21T03:02:46.951Z,1022.88
2019-04-21T03:03:50.603Z,1022.89
2019-04-21T03:05:07.659Z,1022.93
2019-04-21T03:05:51.149Z,1022.90
2019-04-21T03:07:09.384Z,1022.90
2019-04-21T03:07:55.315Z,1022.87
2019-04-21T03:08:56.678Z,1022.80
2019-04-21T03:11:48.623Z,1022.79
2019-04-21T03:13:47.317Z,1022.75
2019-04-21T03:14:56.506Z,1022.76
2019-04-21T03:15:47.211Z,1022.77
2019-04-21T03:16:56.770Z,1022.71
2019-04-21T03:18:52.397Z,1022.74
2019-04-21T03:20:49.670Z,1022.75
2019-04-21T03:21:48.612Z,1022.78
2019-04-21T03:22:46.293Z,1022.76
2019-04-21T03:23:56.283Z,1022.71
2019-04-21T03:25:22.810Z,1022.69
2019-04-21T03:27:01.020Z,1022.69
2019-04-21T03:28:43.925Z,1022.67
2019-04-21T03:29:54.352Z,1022.64
2019-04-21T03:31:12.154Z,1022.65
2019-04-21T03:35:34.010Z,1022.64
2019-04-21T03:37:48.019Z,1022.61
2019-04-21T03:38:47.338Z,1022.58
2019-04-21T03:40:39.968Z,1022.60
2019-04-21T03:41:52.540Z,1022.53
2019-04-21T03:43:43.874Z,1022.59
2019-04-21T03:44:45.664Z,1022.61
2019-04-21T03:46:47.300Z,1022.61
2019-04-21T03:47:50.075Z,1022.62
2019-04-21T03:48:54.009Z,1022.60
2019-04-21T03:49:54.539Z,1022.59
2019-04-21T03:50:41.156Z,1022.57
2019-04-21T03:51:47.534Z,1022.61
2019-04-21T03:52:53.383Z,1022.61
2019-04-21T03:54:58.821Z,1022.56
2019-04-21T03:58:07.059Z,1022.58
2019-04-21T03:58:55.903Z,1022.59
2019-04-21T03:59:49.588Z,1022.59
2019-04-21T04:01:48.637Z,1022.57
2019-04-21T04:04:44.128Z,1022.60
2019-04-21T04:05:57.216Z,1022.65
2019-04-21T04:10:51.365Z,1022.55
2019-04-21T04:12:48.394Z,1022.59
2019-04-21T04:14:10.071Z,1022.60
2019-04-21T04:14:44.415Z,1022.58
2019-04-21T04:15:45.655Z,1022.52
2019-04-21T04:17:04.826Z,1022.55
2019-04-21T04:17:40.477Z,1022.54
2019-04-21T04:18:53.276Z,1022.50
2019-04-21T04:21:04.468Z,1022.55
2019-04-21T04:21:51.944Z,1022.52
2019-04-21T04:22:49.677Z,1022.52
2019-04-21T04:23:58.169Z,1022.55
2019-04-21T04:24:49.873Z,1022.54
2019-04-21T04:25:49.346Z,1022.56
2019-04-21T04:26:45.490Z,1022.55
2019-04-21T04:27:59.533Z,1022.55
2019-04-21T04:29:06.275Z,1022.61
2019-04-21T04:29:39.688Z,1022.59
2019-04-21T04:30:47.619Z,1022.67
2019-04-21T04:32:07.995Z,1022.58
2019-04-21T04:32:42.365Z,1022.59
2019-04-21T04:33:58.092Z,1022.61
2019-04-21T04:34:49.933Z,1022.60
2019-04-21T04:36:58.464Z,1022.62
2019-04-21T04:37:45.026Z,1022.58
2019-04-21T04:38:48.301Z,1022.64
2019-04-21T04:40:48.384Z,1022.60
2019-04-21T04:41:53.123Z,1022.70
2019-04-21T04:42:45.837Z,1022.61
2019-04-21T04:43:44.610Z,1022.62
2019-04-21T04:44:59.735Z,1022.65
2019-04-21T04:47:01.967Z,1022.72
2019-04-21T04:47:59.783Z,1022.71
2019-04-21T04:48:59.410Z,1022.68
2019-04-21T04:52:02.648Z,1022.68
2019-04-21T04:53:45.852Z,1022.69
2019-04-21T04:56:54.051Z,1022.64
2019-04-21T04:57:54.677Z,1022.68
2019-04-21T05:01:08.063Z,1022.68
2019-04-21T05:01:51.214Z,1022.65
2019-04-21T05:02:40.342Z,1022.73
2019-04-21T05:05:08.436Z,1022.68
2019-04-21T05:05:48.982Z,1022.67
2019-04-21T05:07:00.113Z,1022.70
2019-04-21T05:07:52.098Z,1022.62
2019-04-21T05:10:58.703Z,1022.63
2019-04-21T05:13:53.200Z,1022.48
2019-04-21T05:15:42.218Z,1022.54
2019-04-21T05:16:46.319Z,1022.55
2019-04-21T05:17:46.440Z,1022.59
2019-04-21T05:18:55.941Z,1022.55
2019-04-21T05:19:53.638Z,1022.58
2019-04-21T05:20:50.644Z,1022.56
2019-04-21T05:21:42.084Z,1022.59
2019-04-21T05:22:39.509Z,1022.53
2019-04-21T05:23:31.229Z,1022.59
2019-04-21T05:24:36.095Z,1022.56
2019-04-21T05:26:27.234Z,1022.51
2019-04-21T05:27:29.476Z,1022.58
2019-04-21T05:28:29.843Z,1022.52
2019-04-21T05:29:29.661Z,1022.53
2019-04-21T05:31:40.125Z,1022.49
2019-04-21T05:32:39.868Z,1022.63
2019-04-21T05:33:38.322Z,1022.57
2019-04-21T05:34:39.399Z,1022.65
2019-04-21T05:35:37.294Z,1022.62
2019-04-21T05:36:36.062Z,1022.72
2019-04-21T05:37:35.066Z,1022.69
2019-04-21T05:38:33.350Z,1022.73
2019-04-21T05:39:29.606Z,1022.73
2019-04-21T05:40:26.378Z,1022.82
2019-04-21T05:41:26.659Z,1022.86
2019-04-21T05:42:30.488Z,1022.89
2019-04-21T05:43:32.561Z,1022.95
2019-04-21T05:44:41.331Z,1023.00
2019-04-21T05:45:34.533Z,1023.06
2019-04-21T05:46:46.585Z,1023.09
2019-04-21T05:47:40.985Z,1023.04
2019-04-21T05:48:37.833Z,1023.10
2019-04-21T05:49:35.404Z,1023.12
2019-04-21T05:50:32.294Z,1023.11
2019-04-21T05:52:26.522Z,1023.11
2019-04-21T05:54:03.546Z,1023.16
2019-04-21T05:56:36.500Z,1023.14
2019-04-21T05:57:33.357Z,1023.16
2019-04-21T05:58:38.066Z,1023.08
2019-04-21T05:59:40.016Z,1023.09
2019-04-21T06:00:55.922Z,1023.12
2019-04-21T06:01:37.812Z,1023.14
2019-04-21T06:02:36.663Z,1023.16
2019-04-21T06:04:46.929Z,1023.25
2019-04-21T06:05:44.567Z,1023.36
2019-04-21T06:06:39.806Z,1023.46
2019-04-21T06:07:34.870Z,1023.43
2019-04-21T06:08:38.928Z,1023.43
2019-04-21T06:09:39.565Z,1023.54
2019-04-21T06:10:45.849Z,1023.68
2019-04-21T06:11:36.581Z,1023.70
2019-04-21T06:12:35.934Z,1023.77
2019-04-21T06:13:42.786Z,1023.84
2019-04-21T06:14:39.293Z,1023.93
2019-04-21T06:15:40.508Z,1024.05
2019-04-21T06:16:46.364Z,1024.16
2019-04-21T06:17:42.852Z,1024.26
2019-04-21T06:18:44.495Z,1024.07
2019-04-21T06:19:45.068Z,1023.97
2019-04-21T06:20:35.592Z,1023.80
2019-04-21T06:21:33.165Z,1023.74
2019-04-21T06:22:28.967Z,1023.84
2019-04-21T06:23:36.713Z,1023.83
2019-04-21T06:24:43.833Z,1023.87
2019-04-21T06:25:50.045Z,1023.93
2019-04-21T06:26:56.274Z,1024.04
2019-04-21T06:27:52.675Z,1024.09
2019-04-21T06:28:41.510Z,1023.92
2019-04-21T06:29:41.717Z,1023.69
2019-04-21T06:30:45.497Z,1023.63
2019-04-21T06:32:02.429Z,1023.62
2019-04-21T06:33:41.711Z,1023.60
2019-04-21T06:34:49.629Z,1023.63
2019-04-21T06:35:57.090Z,1023.62
2019-04-21T06:36:45.195Z,1023.57
2019-04-21T06:38:49.477Z,1023.51
2019-04-21T06:39:42.658Z,1023.50
2019-04-21T06:40:43.876Z,1023.52
2019-04-21T06:41:34.005Z,1023.43
2019-04-21T06:42:33.728Z,1023.28
2019-04-21T06:43:41.706Z,1023.33
2019-04-21T06:44:38.871Z,1023.40
2019-04-21T06:45:42.642Z,1023.40
2019-04-21T06:46:34.993Z,1023.47
2019-04-21T06:47:49.937Z,1023.46
2019-04-21T06:48:40.570Z,1023.52
2019-04-21T06:49:30.250Z,1023.52
2019-04-21T06:50:44.164Z,1023.42
2019-04-21T06:51:53.370Z,1023.32
2019-04-21T06:52:51.976Z,1023.42
2019-04-21T06:53:44.638Z,1023.39
2019-04-21T06:55:32.370Z,1023.31
2019-04-21T06:56:42.329Z,1023.35
2019-04-21T06:58:40.020Z,1023.39
2019-04-21T06:59:34.265Z,1023.41
2019-04-21T07:00:30.495Z,1023.27
2019-04-21T07:01:36.056Z,1023.35
2019-04-21T07:02:43.704Z,1023.37
2019-04-21T07:03:34.701Z,1023.33
2019-04-21T07:04:37.058Z,1023.37
2019-04-21T07:05:44.071Z,1023.37
2019-04-21T07:06:45.609Z,1023.33
2019-04-21T07:07:42.085Z,1023.38
2019-04-21T07:09:02.903Z,1023.37
2019-04-21T07:09:52.924Z,1023.35
2019-04-21T07:10:32.447Z,1023.36
2019-04-21T07:11:30.250Z,1023.34
2019-04-21T07:12:34.316Z,1023.39
2019-04-21T07:13:30.877Z,1023.37
2019-04-21T07:14:31.945Z,1023.40
2019-04-21T07:15:39.241Z,1023.42
2019-04-21T07:16:41.560Z,1023.39
2019-04-21T07:17:32.662Z,1023.36
2019-04-21T07:18:41.534Z,1023.38
2019-04-21T07:19:46.703Z,1023.41
2019-04-21T07:20:36.266Z,1023.42
2019-04-21T07:21:35.550Z,1023.39
2019-04-21T07:22:37.127Z,1023.40
2019-04-21T07:23:36.870Z,1023.48
2019-04-21T07:24:36.823Z,1023.46
2019-04-21T07:25:39.094Z,1023.36
2019-04-21T07:26:38.661Z,1023.35
2019-04-21T07:27:35.407Z,1023.35
2019-04-21T07:28:38.920Z,1023.38
2019-04-21T07:29:39.486Z,1023.31
2019-04-21T07:30:37.964Z,1023.32
2019-04-21T07:31:41.638Z,1023.37
2019-04-21T07:32:33.458Z,1023.38
2019-04-21T07:34:37.935Z,1023.32
2019-04-21T07:35:31.893Z,1023.37
2019-04-21T07:37:35.327Z,1023.38
2019-04-21T07:38:33.200Z,1023.34
2019-04-21T07:39:32.618Z,1023.34
2019-04-21T07:40:27.473Z,1023.34
2019-04-21T07:41:27.725Z,1023.33
2019-04-21T07:42:29.295Z,1023.34
2019-04-21T07:43:29.978Z,1023.36
2019-04-21T07:44:30.507Z,1023.35
2019-04-21T07:45:26.296Z,1023.32
2019-04-21T07:46:25.706Z,1023.31
2019-04-21T07:47:32.634Z,1023.35
2019-04-21T07:48:36.185Z,1023.27
2019-04-21T07:49:37.040Z,1023.25
2019-04-21T07:50:35.202Z,1023.30
2019-04-21T07:51:42.286Z,1023.28
2019-04-21T07:52:35.016Z,1023.24
2019-04-21T07:53:42.374Z,1023.23
2019-04-21T07:54:37.391Z,1023.23
2019-04-21T07:56:19.969Z,1023.21
2019-04-21T07:57:31.569Z,1023.30
2019-04-21T07:58:36.395Z,1023.30
2019-04-21T07:59:48.487Z,1023.21
2019-04-21T08:00:51.231Z,1023.27
2019-04-21T08:01:30.785Z,1023.20
2019-04-21T08:02:49.713Z,1023.12
2019-04-21T08:03:36.865Z,1023.17
2019-04-21T08:05:31.428Z,1023.20
2019-04-21T08:06:38.654Z,1023.22
2019-04-21T08:07:41.840Z,1023.13
2019-04-21T08:08:29.179Z,1023.19
2019-04-21T08:10:28.617Z,1023.10
2019-04-21T08:11:28.441Z,1023.19
2019-04-21T08:12:24.625Z,1023.20
2019-04-21T08:13:40.055Z,1023.20
2019-04-21T08:14:50.737Z,1023.20
2019-04-21T08:15:33.924Z,1023.25
2019-04-21T08:16:30.545Z,1023.13
2019-04-21T08:17:30.269Z,1023.16
2019-04-21T08:18:34.990Z,1023.11
2019-04-21T08:19:31.038Z,1023.12
2019-04-21T08:20:31.321Z,1023.08
2019-04-21T08:22:32.174Z,1022.99
2019-04-21T08:23:34.137Z,1022.91
2019-04-21T08:24:35.192Z,1022.71
2019-04-21T08:25:35.270Z,1022.47
2019-04-21T08:26:39.711Z,1022.41
2019-04-21T08:27:37.002Z,1022.33
2019-04-21T08:28:35.101Z,1022.38
2019-04-21T08:29:33.217Z,1022.56
2019-04-21T08:30:32.222Z,1022.46
2019-04-21T08:31:39.254Z,1022.37
2019-04-21T08:32:46.235Z,1022.38
2019-04-21T08:33:38.702Z,1022.33
2019-04-21T08:34:35.919Z,1022.30
2019-04-21T08:35:59.442Z,1022.32
2019-04-21T08:36:47.739Z,1022.30
2019-04-21T08:37:31.299Z,1022.27
2019-04-21T08:38:34.390Z,1022.42
2019-04-21T08:39:42.437Z,1022.58
2019-04-21T08:40:39.333Z,1022.43
2019-04-21T08:41:31.575Z,1022.40
2019-04-21T08:42:30.493Z,1022.49
2019-04-21T08:43:48.208Z,1022.49
2019-04-21T08:44:34.839Z,1022.45
2019-04-21T08:45:36.161Z,1022.26
2019-04-21T08:46:31.573Z,1022.24
2019-04-21T08:47:33.094Z,1022.32
2019-04-21T08:48:28.611Z,1022.40
2019-04-21T08:49:34.909Z,1022.31
2019-04-21T08:50:34.523Z,1022.18
2019-04-21T08:51:40.951Z,1022.23
2019-04-21T08:52:42.705Z,1022.30
2019-04-21T08:53:35.474Z,1022.21
2019-04-21T08:54:39.004Z,1022.35
2019-04-21T08:55:31.841Z,1022.34
2019-04-21T08:56:34.550Z,1022.37
2019-04-21T08:57:30.134Z,1022.26
2019-04-21T08:58:34.109Z,1022.22
2019-04-21T08:59:31.372Z,1022.28
2019-04-21T09:00:33.510Z,1022.17
2019-04-21T09:02:35.074Z,1022.07
2019-04-21T09:03:29.905Z,1022.01
2019-04-21T09:04:28.672Z,1021.97
2019-04-21T09:05:31.315Z,1022.03
2019-04-21T09:06:42.069Z,1022.15
2019-04-21T09:07:32.061Z,1022.07
2019-04-21T09:08:34.083Z,1022.01
2019-04-21T09:09:28.767Z,1021.97
2019-04-21T09:10:31.091Z,1021.93
2019-04-21T09:11:30.777Z,1021.91
2019-04-21T09:12:29.110Z,1022.00
2019-04-21T09:13:32.466Z,1022.10
2019-04-21T09:14:33.538Z,1021.91
2019-04-21T09:15:31.131Z,1021.87
2019-04-21T09:16:29.403Z,1021.96
2019-04-21T09:17:26.263Z,1022.03
2019-04-21T09:18:25.425Z,1022.19
2019-04-21T09:19:38.665Z,1022.16
2019-04-21T09:20:32.717Z,1022.18
2019-04-21T09:21:31.716Z,1022.05
2019-04-21T09:22:29.955Z,1021.85
2019-04-21T09:23:26.073Z,1022.02
2019-04-21T09:24:31.561Z,1021.91
2019-04-21T09:25:38.331Z,1021.83
2019-04-21T09:26:29.330Z,1021.76
2019-04-21T09:27:27.030Z,1021.73
2019-04-21T09:28:27.203Z,1021.84
2019-04-21T09:29:21.721Z,1021.75
2019-04-21T09:30:12.841Z,1021.74
2019-04-21T09:31:12.119Z,1021.75
2019-04-21T09:32:16.661Z,1021.72
2019-04-21T09:33:11.648Z,1021.59
2019-04-21T09:34:14.279Z,1021.79
2019-04-21T09:35:14.864Z,1021.65
2019-04-21T09:36:15.390Z,1021.61
2019-04-21T09:37:24.410Z,1021.79
2019-04-21T09:38:15.987Z,1021.93
2019-04-21T09:39:15.137Z,1021.66
2019-04-21T09:40:13.492Z,1021.69
2019-04-21T09:41:14.260Z,1021.76
2019-04-21T09:42:11.477Z,1021.73
2019-04-21T09:43:13.288Z,1021.61
2019-04-21T09:44:17.217Z,1021.60
2019-04-21T09:45:12.521Z,1021.48
2019-04-21T09:46:11.673Z,1021.67
2019-04-21T09:47:11.027Z,1021.56
2019-04-21T09:48:16.468Z,1021.53
2019-04-21T09:49:14.752Z,1021.45
2019-04-21T09:50:11.728Z,1021.40
2019-04-21T09:51:11.061Z,1021.59
2019-04-21T09:52:16.985Z,1021.55
2019-04-21T09:53:22.152Z,1021.62
2019-04-21T09:54:16.042Z,1021.64
2019-04-21T09:55:15.978Z,1021.48
2019-04-21T09:56:16.300Z,1021.71
2019-04-21T09:57:25.731Z,1021.45
2019-04-21T09:58:23.225Z,1021.49
2019-04-21T09:59:18.042Z,1021.37
2019-04-21T10:00:17.953Z,1021.30
2019-04-21T10:01:19.743Z,1021.31
2019-04-21T10:02:17.465Z,1021.25
2019-04-21T10:03:14.008Z,1021.31
2019-04-21T10:04:09.958Z,1021.26
2019-04-21T10:05:10.051Z,1021.15
2019-04-21T10:06:11.184Z,1021.17
2019-04-21T10:07:21.824Z,1021.16
2019-04-21T10:08:12.429Z,1021.26
2019-04-21T10:09:14.177Z,1021.21
2019-04-21T10:10:10.884Z,1021.15
2019-04-21T10:11:09.923Z,1021.21
2019-04-21T10:12:09.916Z,1021.20
2019-04-21T10:13:10.645Z,1021.22
2019-04-21T10:14:09.859Z,1021.21
2019-04-21T10:15:10.663Z,1021.55
2019-04-21T10:16:10.863Z,1021.61
2019-04-21T10:17:10.883Z,1021.66
2019-04-21T10:18:10.796Z,1021.63
2019-04-21T10:19:11.012Z,1021.59
2019-04-21T10:20:09.781Z,1021.46
2019-04-21T10:21:09.791Z,1021.40
2019-04-21T10:22:10.593Z,1021.32
2019-04-21T10:23:09.756Z,1021.40
2019-04-21T10:24:10.486Z,1021.25
2019-04-21T10:25:10.478Z,1021.21
2019-04-21T10:26:10.464Z,1021.26
2019-04-21T10:27:12.251Z,1021.19
2019-04-21T10:28:10.943Z,1021.13
2019-04-21T10:29:17.195Z,1021.07
2019-04-21T10:30:11.986Z,1021.05
2019-04-21T10:31:10.925Z,1021.31
2019-04-21T10:32:09.672Z,1021.11
2019-04-21T10:33:10.398Z,1021.15
2019-04-21T10:34:09.633Z,1021.16
2019-04-21T10:35:10.790Z,1020.99
2019-04-21T10:36:10.957Z,1021.00
2019-04-21T10:37:09.613Z,1021.03
2019-04-21T10:38:20.320Z,1020.95
2019-04-21T10:39:11.523Z,1020.93
2019-04-21T10:40:09.729Z,1020.91
2019-04-21T10:41:09.637Z,1020.80
2019-04-21T10:42:09.587Z,1021.02
2019-04-21T10:43:12.093Z,1021.00
2019-04-21T10:44:09.525Z,1021.08
2019-04-21T10:45:10.735Z,1020.93
2019-04-21T10:46:10.755Z,1020.91
2019-04-21T10:47:10.848Z,1020.85
2019-04-21T10:48:10.821Z,1020.89
2019-04-21T10:49:10.444Z,1020.85
2019-04-21T10:50:10.769Z,1020.77
2019-04-21T10:51:10.656Z,1020.84
2019-04-21T10:52:10.695Z,1021.20
2019-04-21T10:53:09.427Z,1021.39
2019-04-21T10:54:09.473Z,1021.48
2019-04-21T10:55:26.337Z,1021.13
2019-04-21T10:56:19.218Z,1021.51
2019-04-21T10:57:10.495Z,1021.05
2019-04-21T10:58:10.680Z,1020.67
2019-04-21T10:59:10.134Z,1021.35
2019-04-21T11:00:11.945Z,1020.92
2019-04-21T11:01:10.587Z,1020.80
2019-04-21T11:02:10.539Z,1021.08
2019-04-21T11:03:10.865Z,1021.08
2019-04-21T11:04:17.240Z,1020.79
2019-04-21T11:05:10.309Z,1021.36
2019-04-21T11:06:10.559Z,1021.14
2019-04-21T11:07:15.502Z,1021.04
2019-04-21T11:08:21.365Z,1020.75
2019-04-21T11:09:10.792Z,1021.12
2019-04-21T11:10:09.968Z,1020.89
2019-04-21T11:11:10.053Z,1020.85
2019-04-21T11:12:10.172Z,1020.86
2019-04-21T11:13:10.399Z,1021.29
2019-04-21T11:14:10.471Z,1020.75
2019-04-21T11:15:09.388Z,1020.86
2019-04-21T11:16:09.189Z,1021.26
2019-04-21T11:17:10.192Z,1021.33
2019-04-21T11:18:10.236Z,1020.57
2019-04-21T11:19:09.536Z,1021.01
2019-04-21T11:20:09.154Z,1020.87
2019-04-21T11:21:09.281Z,1021.17
2019-04-21T11:22:10.216Z,1021.25
2019-04-21T11:23:10.186Z,1021.10
2019-04-21T11:24:10.234Z,1021.18
2019-04-21T11:25:09.219Z,1020.44
2019-04-21T11:26:09.941Z,1020.75
2019-04-21T11:27:09.095Z,1020.32
2019-04-21T11:28:09.072Z,1021.17
2019-04-21T11:29:09.089Z,1020.77
2019-04-21T11:30:09.571Z,1020.74
2019-04-21T11:31:09.141Z,1020.69
2019-04-21T11:32:09.376Z,1020.45
2019-04-21T11:33:09.145Z,1020.98
2019-04-21T11:34:09.251Z,1020.33
2019-04-21T11:35:09.426Z,1021.05
2019-04-21T11:36:09.136Z,1021.04
2019-04-21T11:37:10.206Z,1021.12
2019-04-21T11:38:16.632Z,1020.35
2019-04-21T11:39:22.276Z,1020.90
2019-04-21T11:40:13.130Z,1020.63
2019-04-21T11:41:09.946Z,1020.57
2019-04-21T11:42:10.047Z,1020.78
2019-04-21T11:43:09.591Z,1020.88
2019-04-21T11:44:09.864Z,1020.57
2019-04-21T11:45:10.397Z,1020.64
2019-04-21T11:46:08.896Z,1020.32
2019-04-21T11:47:10.154Z,1020.85
2019-04-21T11:48:10.383Z,1020.45
2019-04-21T11:49:09.161Z,1020.18
2019-04-21T11:50:08.883Z,1021.07
2019-04-21T11:51:09.047Z,1020.21
2019-04-21T11:52:09.164Z,1020.26
2019-04-21T11:53:08.833Z,1020.65
2019-04-21T11:54:08.907Z,1020.94
2019-04-21T11:55:09.019Z,1020.13
2019-04-21T11:56:09.075Z,1020.29
2019-04-21T11:57:17.545Z,1020.27
2019-04-21T11:58:10.001Z,1020.62
2019-04-21T11:59:10.013Z,1020.75
2019-04-21T12:00:09.371Z,1020.30
2019-04-21T12:01:09.669Z,1020.62
2019-04-21T12:02:09.756Z,1020.93
2019-04-21T12:03:09.205Z,1020.18
2019-04-21T12:04:09.733Z,1020.40
2019-04-21T12:05:09.741Z,1020.31
2019-04-21T12:06:09.186Z,1020.29
2019-04-21T12:07:09.169Z,1020.24
2019-04-21T12:08:21.185Z,1020.12
2019-04-21T12:09:10.486Z,1020.10
2019-04-21T12:10:09.239Z,1020.38
2019-04-21T12:11:09.428Z,1020.98
2019-04-21T12:12:09.604Z,1020.96
2019-04-21T12:13:09.954Z,1021.01
2019-04-21T12:14:09.898Z,1020.98
2019-04-21T12:15:10.814Z,1021.08
2019-04-21T12:16:08.607Z,1021.23
2019-04-21T12:17:09.765Z,1020.65
2019-04-21T12:18:09.947Z,1021.18
2019-04-21T12:19:09.200Z,1020.94
2019-04-21T12:20:08.717Z,1020.23
2019-04-21T12:21:09.362Z,1019.96
2019-04-21T12:22:17.558Z,1019.94
2019-04-21T12:23:09.541Z,1020.55
2019-04-21T12:24:09.063Z,1020.06
2019-04-21T12:25:09.307Z,1020.43
2019-04-21T12:26:09.362Z,1020.33
2019-04-21T12:27:09.733Z,1019.89
2019-04-21T12:28:09.954Z,1019.88
2019-04-21T12:29:08.481Z,1019.95
2019-04-21T12:30:09.463Z,1021.27
2019-04-21T12:31:09.614Z,1019.76
2019-04-21T12:32:09.703Z,1019.99
2019-04-21T12:33:09.793Z,1021.03
2019-04-21T12:34:09.800Z,1020.53
2019-04-21T12:35:08.433Z,1020.57
2019-04-21T12:36:09.468Z,1020.71
2019-04-21T12:37:08.807Z,1020.30
2019-04-21T12:38:08.896Z,1020.54
2019-04-21T12:39:09.096Z,1019.69
2019-04-21T12:40:08.550Z,1019.66
2019-04-21T12:41:08.741Z,1020.98
2019-04-21T12:42:08.924Z,1021.69
2019-04-21T12:43:08.519Z,1020.47
2019-04-21T12:44:08.782Z,1020.82
2019-04-21T12:45:09.668Z,1020.34
2019-04-21T12:46:09.645Z,1019.63
2019-04-21T12:47:08.333Z,1019.78
2019-04-21T12:48:08.472Z,1019.44
2019-04-21T12:49:09.649Z,1019.51
2019-04-21T12:50:08.720Z,1020.06
2019-04-21T12:51:08.286Z,1022.01
2019-04-21T12:52:09.360Z,1020.73
2019-04-21T12:53:09.544Z,1021.44
2019-04-21T12:54:08.257Z,1021.61
2019-04-21T12:55:09.335Z,1020.52
2019-04-21T12:56:09.373Z,1019.57
2019-04-21T12:57:09.583Z,1020.49
2019-04-21T12:58:08.184Z,1023.84
2019-04-21T12:59:08.190Z,1019.38
2019-04-21T13:00:08.994Z,1020.52
2019-04-21T13:01:09.287Z,1019.27
2019-04-21T13:02:09.508Z,1020.18
2019-04-21T13:03:08.206Z,1019.38
2019-04-21T13:04:08.219Z,1019.19
2019-04-21T13:05:09.428Z,1022.10
2019-04-21T13:06:08.146Z,1026.05
2019-04-21T13:07:08.118Z,1021.63
2019-04-21T13:08:09.216Z,1023.38
2019-04-21T13:09:11.211Z,1023.28
2019-04-21T13:10:10.437Z,1025.43
2019-04-21T13:11:09.498Z,1026.28
2019-04-21T13:12:08.979Z,1025.31
2019-04-21T13:13:08.140Z,1024.87
2019-04-21T13:14:08.275Z,1021.12
2019-04-21T13:15:08.715Z,1020.14
2019-04-21T13:16:09.450Z,1018.98
2019-04-21T13:17:08.019Z,1019.04
2019-04-21T13:18:08.172Z,1020.17